Time;durP1;ratioP1;P1;durP2;ratioP2;P2;SDS_P1;SDS_P2;PMS_P1;PMS_P2;Temp;Humidity;BMP_temperature;BMP_pressure;BME280_temperature;BME280_humidity;BME280_pressure;Samples;Min_cycle;Max_cycle;Signal;HPM_P1;HPM_P2
2021/11/07 00:00:27;;;;;;;8.25;3.72;;;12.60;99.90;;;;;;5073251;28;20044;-70
2021/11/07 00:03:15;;;;;;;5.60;3.20;;;12.60;99.90;;;;;;5079522;28;20468;-69
2021/11/07 00:05:47;;;;;;;4.63;2.67;;;12.60;99.90;;;;;;5088802;28;20080;-69
2021/11/07 00:08:31;;;;;;;6.82;2.78;;;12.50;99.90;;;;;;5087998;28;20506;-74
2021/11/07 00:11:04;;;;;;;5.05;2.80;;;12.50;99.90;;;;;;5088150;28;20040;-70
2021/11/07 00:13:31;;;;;;;4.75;2.63;;;12.50;99.90;;;;;;5089031;28;20048;-70
2021/11/07 00:16:03;;;;;;;5.05;2.42;;;12.50;99.90;;;;;;5089567;28;20055;-69
2021/11/07 00:18:37;;;;;;;4.32;2.67;;;12.50;99.90;;;;;;5090313;28;20052;-70
2021/11/07 00:21:12;;;;;;;8.07;3.35;;;12.50;99.90;;;;;;5074274;28;20040;-68
2021/11/07 00:32:23;;;;;;;6.85;3.47;;;12.50;99.90;;;;;;5077595;28;20044;-69
2021/11/07 00:37:38;;;;;;;5.35;2.53;;;12.50;99.90;;;;;;5085428;28;20040;-69
2021/11/07 00:40:46;;;;;;;5.47;2.95;;;12.50;99.90;;;;;;5092132;28;20048;-69
2021/11/07 00:43:12;;;;;;;4.45;2.88;;;12.50;99.90;;;;;;5088755;28;20110;-69
2021/11/07 00:48:30;;;;;;;4.25;2.88;;;12.50;99.90;;;;;;5081350;28;20057;-70
2021/11/07 00:51:14;;;;;;;5.00;3.25;;;12.40;99.90;;;;;;5075218;28;20048;-69
2021/11/07 01:01:25;;;;;;;12.07;3.15;;;12.40;99.90;;;;;;5089809;28;20062;-70
2021/11/07 01:03:52;;;;;;;3.80;2.40;;;12.40;99.90;;;;;;5100020;28;20047;-70
2021/11/07 01:06:19;;;;;;;4.18;2.80;;;12.40;99.90;;;;;;5091421;28;20051;-70
2021/11/07 01:08:48;;;;;;;5.22;3.15;;;12.40;99.90;;;;;;5091736;28;20055;-71
2021/11/07 01:11:15;;;;;;;4.45;2.47;;;12.40;99.90;;;;;;5091290;28;20044;-70
2021/11/07 01:13:42;;;;;;;6.47;3.13;;;12.40;99.90;;;;;;5091011;28;20052;-70
2021/11/07 01:16:10;;;;;;;5.38;2.67;;;12.40;99.90;;;;;;5090967;28;20051;-73
2021/11/07 01:18:37;;;;;;;3.90;2.65;;;12.40;99.90;;;;;;5091038;28;20048;-70
2021/11/07 01:21:04;;;;;;;6.57;3.17;;;12.40;99.90;;;;;;5071240;28;20044;-69
2021/11/07 01:23:43;;;;;;;5.35;2.92;;;12.50;99.90;;;;;;5073415;28;20048;-69
2021/11/07 01:26:25;;;;;;;5.32;2.78;;;12.40;99.90;;;;;;5092009;28;20052;-70
2021/11/07 01:29:09;;;;;;;6.43;3.15;;;12.50;99.90;;;;;;5089311;28;20450;-70
2021/11/07 01:31:38;;;;;;;3.65;2.60;;;12.50;99.90;;;;;;5090423;28;20048;-69
2021/11/07 01:34:06;;;;;;;5.20;2.70;;;12.50;99.90;;;;;;5090384;28;20062;-69
2021/11/07 01:36:39;;;;;;;3.95;2.72;;;12.50;99.90;;;;;;5070606;28;20057;-70
2021/11/07 01:44:08;;;;;;;4.68;2.97;;;12.50;99.90;;;;;;5090542;28;20082;-69
2021/11/07 01:46:38;;;;;;;5.63;2.92;;;12.50;99.90;;;;;;5089232;28;20488;-70
2021/11/07 01:51:33;;;;;;;4.90;3.10;;;12.50;99.90;;;;;;5089650;28;20056;-69
2021/11/07 01:54:20;;;;;;;5.95;3.17;;;12.40;99.90;;;;;;5091462;28;20056;-69
2021/11/07 01:56:48;;;;;;;4.95;3.00;;;12.40;99.90;;;;;;5090233;28;20155;-70
2021/11/07 01:59:15;;;;;;;5.97;3.72;;;12.50;99.90;;;;;;5073692;28;20403;-69
2021/11/07 02:01:42;;;;;;;6.43;3.78;;;12.40;99.90;;;;;;5090848;28;20050;-71
2021/11/07 02:04:09;;;;;;;5.47;3.60;;;12.40;99.90;;;;;;5092074;28;20066;-74
2021/11/07 02:06:37;;;;;;;8.75;4.47;;;12.40;99.90;;;;;;5091362;28;20503;-69
2021/11/07 02:09:04;;;;;;;4.90;3.17;;;12.30;99.90;;;;;;5091060;28;20044;-70
2021/11/07 02:11:31;;;;;;;6.03;3.55;;;12.20;99.90;;;;;;5089339;28;20044;-70
2021/11/07 02:13:58;;;;;;;5.10;3.25;;;12.20;99.90;;;;;;5090423;28;20051;-70
2021/11/07 02:16:25;;;;;;;7.82;4.50;;;12.10;99.90;;;;;;5089582;28;20048;-70
2021/11/07 02:18:52;;;;;;;5.28;3.70;;;12.10;99.90;;;;;;5091062;28;20075;-70
2021/11/07 02:21:19;;;;;;;8.40;4.30;;;12.00;99.90;;;;;;5089537;28;20559;-71
2021/11/07 02:23:46;;;;;;;7.80;3.38;;;12.00;99.90;;;;;;5089777;28;20055;-70
2021/11/07 02:26:13;;;;;;;6.38;3.60;;;11.90;99.90;;;;;;5092082;28;20410;-69
2021/11/07 02:28:43;;;;;;;8.75;3.95;;;11.80;99.90;;;;;;5088062;28;20044;-69
2021/11/07 02:31:13;;;;;;;7.82;3.35;;;11.80;99.90;;;;;;5071847;28;20058;-71
2021/11/07 02:33:40;;;;;;;4.63;3.45;;;11.70;99.90;;;;;;5092540;28;20039;-70
2021/11/07 02:36:10;;;;;;;7.18;3.35;;;11.60;99.90;;;;;;5088561;28;20055;-69
2021/11/07 02:38:37;;;;;;;6.78;3.25;;;11.60;99.90;;;;;;5088259;28;20036;-70
2021/11/07 02:41:04;;;;;;;10.85;3.97;;;11.60;99.90;;;;;;5089523;28;20409;-70
2021/11/07 02:43:45;;;;;;;8.95;3.53;;;11.50;99.90;;;;;;5068141;28;20052;-70
2021/11/07 02:46:16;;;;;;;9.98;4.05;;;11.50;99.90;;;;;;5081687;28;20116;-69
2021/11/07 02:48:48;;;;;;;9.45;3.10;;;11.50;99.90;;;;;;5073334;28;20056;-70
2021/11/07 02:51:16;;;;;;;14.18;3.65;;;11.50;99.90;;;;;;5090189;28;20062;-70
2021/11/07 02:53:43;;;;;;;11.20;3.20;;;11.50;97.00;;;;;;5087811;28;20044;-71
2021/11/07 02:56:11;;;;;;;11.80;3.25;;;11.50;96.90;;;;;;5087963;28;20097;-71
2021/11/07 02:58:39;;;;;;;11.93;3.50;;;11.50;96.40;;;;;;5089237;28;20052;-68
2021/11/07 03:01:06;;;;;;;10.30;3.97;;;11.50;95.00;;;;;;5088485;28;20055;-69
2021/11/07 03:03:33;;;;;;;11.18;3.67;;;11.40;93.20;;;;;;5089506;28;20047;-69
2021/11/07 03:06:01;;;;;;;8.25;2.88;;;11.40;92.30;;;;;;5089836;28;20040;-73
2021/11/07 03:08:29;;;;;;;10.35;2.80;;;11.30;91.40;;;;;;5090347;28;20383;-69
2021/11/07 03:10:57;;;;;;;13.73;3.25;;;11.20;91.80;;;;;;5088421;28;20072;-70
2021/11/07 03:13:24;;;;;;;15.07;3.42;;;11.20;90.70;;;;;;5087540;28;20052;-70
2021/11/07 03:15:52;;;;;;;9.30;3.42;;;11.10;90.90;;;;;;5072189;28;20048;-69
2021/11/07 03:18:18;;;;;;;8.13;2.80;;;11.10;91.00;;;;;;5088017;28;20444;-70
2021/11/07 03:20:45;;;;;;;11.32;2.90;;;11.00;92.20;;;;;;5071305;28;20524;-70
2021/11/07 03:23:19;;;;;;;14.48;4.05;;;11.00;91.70;;;;;;5090116;28;20056;-70
2021/11/07 03:25:50;;;;;;;10.13;3.40;;;10.90;91.40;;;;;;5088338;28;20066;-69
2021/11/07 03:28:17;;;;;;;14.88;3.53;;;10.80;90.60;;;;;;5087822;28;20093;-70
2021/11/07 03:31:50;;;;;;;14.68;3.45;;;10.80;91.70;;;;;;5081298;28;20044;-69
2021/11/07 03:36:16;;;;;;;14.35;3.72;;;10.60;91.70;;;;;;5088129;28;20044;-69
2021/11/07 03:38:43;;;;;;;15.52;4.93;;;10.60;91.50;;;;;;5087887;28;20044;-70
2021/11/07 03:41:10;;;;;;;10.75;2.65;;;10.50;91.00;;;;;;5087535;28;20072;-71
2021/11/07 03:43:37;;;;;;;14.63;3.42;;;10.50;92.10;;;;;;5086409;28;20047;-69
2021/11/07 03:46:04;;;;;;;16.25;3.92;;;10.40;91.20;;;;;;5088644;28;20048;-70
2021/11/07 03:48:31;;;;;;;13.48;3.08;;;10.40;91.40;;;;;;5089214;28;20059;-69
2021/11/07 03:51:01;;;;;;;10.68;3.60;;;10.40;91.90;;;;;;5071366;28;20060;-71
2021/11/07 03:53:28;;;;;;;11.02;3.47;;;10.30;91.90;;;;;;5083536;28;20082;-69
2021/11/07 03:55:55;;;;;;;12.95;3.75;;;10.20;91.90;;;;;;5092976;28;20066;-71
2021/11/07 03:58:22;;;;;;;13.23;3.70;;;10.10;91.90;;;;;;5091586;28;20056;-68
2021/11/07 04:00:50;;;;;;;15.63;3.50;;;10.20;92.70;;;;;;5091534;28;20048;-69
2021/11/07 04:03:17;;;;;;;8.82;3.33;;;10.10;91.40;;;;;;5087055;28;20088;-69
2021/11/07 04:05:44;;;;;;;9.95;3.40;;;10.00;92.20;;;;;;5058952;28;20055;-71
2021/11/07 04:08:11;;;;;;;10.40;3.65;;;10.00;92.90;;;;;;5093566;28;20402;-69
2021/11/07 04:10:38;;;;;;;13.13;3.13;;;9.90;92.20;;;;;;5091900;28;20044;-69
2021/11/07 04:13:05;;;;;;;13.30;3.08;;;9.90;92.40;;;;;;5093253;28;20089;-69
2021/11/07 04:15:33;;;;;;;7.93;2.85;;;9.80;93.00;;;;;;5091932;28;20399;-69
2021/11/07 04:18:01;;;;;;;10.68;3.20;;;9.80;92.80;;;;;;5092356;28;20050;-73
2021/11/07 04:20:28;;;;;;;9.68;2.90;;;9.70;93.20;;;;;;5090598;28;20047;-69
2021/11/07 04:22:54;;;;;;;9.55;2.85;;;9.70;92.80;;;;;;5093690;28;20106;-70
2021/11/07 04:25:21;;;;;;;7.30;3.22;;;9.70;92.60;;;;;;5095245;28;20051;-71
2021/11/07 04:27:48;;;;;;;14.13;3.50;;;9.70;92.00;;;;;;5070494;28;20139;-70
2021/11/07 04:30:15;;;;;;;17.38;3.88;;;9.70;91.60;;;;;;5088878;28;20044;-71
2021/11/07 04:32:42;;;;;;;11.43;3.25;;;9.70;91.70;;;;;;5083030;28;20480;-71
2021/11/07 04:35:09;;;;;;;11.32;2.92;;;9.70;92.40;;;;;;5093157;28;20046;-70
2021/11/07 04:37:38;;;;;;;11.13;3.22;;;9.60;91.90;;;;;;5092409;28;20059;-70
2021/11/07 04:40:06;;;;;;;9.93;3.47;;;9.60;91.80;;;;;;5091881;28;20047;-70
2021/11/07 04:42:33;;;;;;;12.88;3.63;;;9.60;91.20;;;;;;5074871;28;20059;-68
2021/11/07 04:45:01;;;;;;;14.00;3.60;;;9.60;90.40;;;;;;5090519;28;20044;-70
2021/11/07 04:47:28;;;;;;;10.48;3.15;;;9.60;91.00;;;;;;5090849;28;20081;-68
2021/11/07 04:49:55;;;;;;;15.82;3.97;;;9.60;91.00;;;;;;5092504;28;20039;-70
2021/11/07 04:52:22;;;;;;;12.88;3.67;;;9.60;91.60;;;;;;5092196;28;20117;-69
2021/11/07 04:54:49;;;;;;;15.40;3.60;;;9.50;90.80;;;;;;5093199;28;20379;-69
2021/11/07 04:57:17;;;;;;;11.05;3.75;;;9.50;91.70;;;;;;5099241;28;20073;-70
2021/11/07 04:59:43;;;;;;;14.98;4.63;;;9.40;91.20;;;;;;5058067;28;20052;-69
2021/11/07 05:02:10;;;;;;;8.93;3.45;;;9.50;91.20;;;;;;5090212;28;20054;-70
2021/11/07 05:04:37;;;;;;;13.32;3.38;;;9.40;91.70;;;;;;5086612;28;20048;-70
2021/11/07 05:07:04;;;;;;;11.38;2.80;;;9.40;91.30;;;;;;5092344;28;20055;-69
2021/11/07 05:09:31;;;;;;;8.75;3.72;;;9.40;90.90;;;;;;5090928;28;20088;-70
2021/11/07 05:11:58;;;;;;;15.48;4.25;;;9.40;91.20;;;;;;5091946;28;20055;-70
2021/11/07 05:14:25;;;;;;;13.48;3.47;;;9.40;91.40;;;;;;5091067;28;20105;-75
2021/11/07 05:16:52;;;;;;;14.52;2.97;;;9.30;91.00;;;;;;5073645;28;20051;-70
2021/11/07 05:19:19;;;;;;;9.77;3.70;;;9.30;91.60;;;;;;5091510;28;20048;-69
2021/11/07 05:21:46;;;;;;;15.32;3.33;;;9.30;92.10;;;;;;5091757;28;20400;-69
2021/11/07 05:24:13;;;;;;;18.55;4.65;;;9.20;92.00;;;;;;5091665;28;20127;-69
2021/11/07 05:26:40;;;;;;;10.05;3.00;;;9.20;93.40;;;;;;5091642;28;20048;-70
2021/11/07 05:29:07;;;;;;;12.30;3.25;;;9.20;92.50;;;;;;5089994;28;20044;-69
2021/11/07 05:31:35;;;;;;;17.02;3.83;;;9.10;92.60;;;;;;5090636;28;20050;-70
2021/11/07 05:34:03;;;;;;;12.52;3.28;;;9.10;92.70;;;;;;5091537;28;20168;-71
2021/11/07 05:36:32;;;;;;;13.85;3.80;;;9.00;93.30;;;;;;5090300;28;20040;-69
2021/11/07 05:38:59;;;;;;;12.27;3.15;;;9.00;93.30;;;;;;5090723;28;20396;-69
2021/11/07 05:41:26;;;;;;;17.08;4.20;;;9.00;92.90;;;;;;5090009;28;20492;-69
2021/11/07 05:43:53;;;;;;;14.75;3.88;;;9.00;92.60;;;;;;5090454;28;20048;-69
2021/11/07 05:46:20;;;;;;;16.00;4.55;;;9.00;93.10;;;;;;5091902;28;20481;-70
2021/11/07 05:48:46;;;;;;;12.85;3.40;;;8.90;93.40;;;;;;5090225;28;20126;-69
2021/11/07 05:51:14;;;;;;;20.88;4.80;;;8.90;93.10;;;;;;5086408;28;20361;-69
2021/11/07 05:53:41;;;;;;;21.70;4.70;;;8.90;93.00;;;;;;5088903;28;20040;-70
2021/11/07 05:56:08;;;;;;;14.23;3.85;;;8.90;93.40;;;;;;5070529;28;20094;-72
2021/11/07 05:58:35;;;;;;;15.93;4.38;;;8.90;93.60;;;;;;5090686;28;20050;-70
2021/11/07 06:01:02;;;;;;;14.05;4.05;;;8.90;93.90;;;;;;5088679;28;20044;-70
2021/11/07 06:03:29;;;;;;;11.25;3.38;;;8.90;94.70;;;;;;5089440;28;20056;-70
2021/11/07 06:05:56;;;;;;;11.75;3.30;;;8.80;94.20;;;;;;5089026;28;20043;-70
2021/11/07 06:08:23;;;;;;;13.27;3.83;;;8.80;94.30;;;;;;5091108;28;20506;-69
2021/11/07 06:10:50;;;;;;;14.30;3.95;;;8.80;95.70;;;;;;5089478;28;20489;-69
2021/11/07 06:13:17;;;;;;;11.30;4.43;;;8.70;94.60;;;;;;5089344;28;20105;-69
2021/11/07 06:15:44;;;;;;;14.27;3.95;;;8.70;95.40;;;;;;5088878;28;20055;-71
2021/11/07 06:18:11;;;;;;;11.80;4.03;;;8.70;94.50;;;;;;5092118;28;20040;-69
2021/11/07 06:20:38;;;;;;;12.68;4.50;;;8.60;95.00;;;;;;5091312;28;20048;-69
2021/11/07 06:23:05;;;;;;;14.57;4.65;;;8.60;95.80;;;;;;5089504;28;20052;-69
2021/11/07 06:25:32;;;;;;;13.68;4.25;;;8.50;95.30;;;;;;5091170;28;20052;-69
2021/11/07 06:27:59;;;;;;;18.00;4.47;;;8.50;96.20;;;;;;5089544;28;20051;-69
2021/11/07 06:30:27;;;;;;;13.85;3.22;;;8.50;95.80;;;;;;5090036;28;20052;-70
2021/11/07 06:32:54;;;;;;;13.27;4.22;;;8.50;95.80;;;;;;5089902;28;20051;-69
2021/11/07 06:35:21;;;;;;;11.57;3.95;;;8.50;96.60;;;;;;5086017;28;20059;-69
2021/11/07 06:37:48;;;;;;;15.32;3.35;;;8.40;95.70;;;;;;5091213;28;20048;-69
2021/11/07 06:40:15;;;;;;;20.98;5.43;;;8.50;96.50;;;;;;5072739;28;20138;-69
2021/11/07 06:42:42;;;;;;;14.80;3.85;;;8.40;95.90;;;;;;5089974;28;20137;-68
2021/11/07 06:45:11;;;;;;;10.75;3.67;;;8.40;96.10;;;;;;5088712;28;20146;-70
2021/11/07 06:47:38;;;;;;;11.65;3.63;;;8.40;96.20;;;;;;5088672;28;20064;-68
2021/11/07 06:50:06;;;;;;;16.05;4.30;;;8.40;96.50;;;;;;5088582;28;20109;-69
2021/11/07 06:52:33;;;;;;;15.20;3.97;;;8.30;95.90;;;;;;5071928;28;20086;-69
2021/11/07 06:55:01;;;;;;;17.58;4.20;;;8.30;96.50;;;;;;5076659;28;20051;-69
2021/11/07 06:57:28;;;;;;;15.95;3.80;;;8.30;97.10;;;;;;5054661;28;20048;-68
2021/11/07 06:59:55;;;;;;;15.30;4.65;;;8.20;96.60;;;;;;5088072;28;20084;-69
2021/11/07 07:02:23;;;;;;;13.05;4.30;;;8.20;96.40;;;;;;5088054;28;20514;-69
2021/11/07 07:04:50;;;;;;;14.65;3.97;;;8.30;96.50;;;;;;5089820;28;20054;-69
2021/11/07 07:07:18;;;;;;;12.05;4.10;;;8.30;96.80;;;;;;5091564;28;20048;-70
2021/11/07 07:09:54;;;;;;;15.05;3.70;;;8.20;96.90;;;;;;5088791;28;20050;-70
2021/11/07 07:15:02;;;;;;;51.15;31.65;;;8.20;96.90;;;;;;5088460;28;20056;-74
2021/11/07 07:20:09;;;;;;;;;;;8.30;97.30;;;;;;5089939;28;20089;-71
2021/11/07 07:28:11;;;;;;;11.30;4.22;;;8.20;97.00;;;;;;5088966;28;20047;-69
2021/11/07 07:30:49;;;;;;;16.60;4.15;;;8.20;97.00;;;;;;5087552;28;20048;-70
2021/11/07 07:33:30;;;;;;;17.00;4.35;;;8.20;97.20;;;;;;5057001;28;20342;-70
2021/11/07 07:35:57;;;;;;;16.05;3.58;;;8.20;96.90;;;;;;5087831;28;20044;-69
2021/11/07 07:38:24;;;;;;;15.18;3.78;;;8.20;97.20;;;;;;5088175;28;20051;-70
2021/11/07 07:40:51;;;;;;;21.75;4.05;;;8.20;97.30;;;;;;5088254;28;20043;-70
2021/11/07 07:43:19;;;;;;;15.13;4.25;;;8.30;96.80;;;;;;5088140;28;20056;-72
2021/11/07 07:45:46;;;;;;;17.25;4.53;;;8.30;96.80;;;;;;5084567;28;20474;-70
2021/11/07 07:48:14;;;;;;;18.27;4.45;;;8.30;97.50;;;;;;5087786;28;20109;-72
2021/11/07 07:50:41;;;;;;;18.35;4.05;;;8.30;97.40;;;;;;5087601;28;20055;-70
2021/11/07 07:53:09;;;;;;;14.57;3.70;;;8.30;97.10;;;;;;5087260;28;20048;-70
2021/11/07 07:55:36;;;;;;;11.02;4.03;;;8.40;97.30;;;;;;5086284;28;20114;-70
2021/11/07 07:58:03;;;;;;;10.90;3.75;;;8.40;97.20;;;;;;5088619;28;20083;-69
2021/11/07 08:00:30;;;;;;;18.00;4.85;;;8.50;96.80;;;;;;5087677;28;20044;-73
2021/11/07 08:02:57;;;;;;;12.38;3.65;;;8.50;97.20;;;;;;5070780;28;20528;-70
2021/11/07 08:05:24;;;;;;;21.15;4.50;;;8.50;96.90;;;;;;5090011;28;20471;-70
2021/11/07 08:07:51;;;;;;;20.63;4.90;;;8.50;96.60;;;;;;5071288;28;20050;-72
2021/11/07 08:10:19;;;;;;;13.82;4.03;;;8.50;97.10;;;;;;5087880;28;20087;-73
2021/11/07 08:12:46;;;;;;;12.13;3.05;;;8.60;97.10;;;;;;5087561;28;20402;-70
2021/11/07 08:15:13;;;;;;;19.17;4.25;;;8.60;96.70;;;;;;5071039;28;20054;-69
2021/11/07 08:17:41;;;;;;;17.40;3.80;;;8.60;96.90;;;;;;5071382;28;20115;-70
2021/11/07 08:20:09;;;;;;;21.13;3.92;;;8.60;96.80;;;;;;5092638;28;20056;-69
2021/11/07 08:22:37;;;;;;;12.52;3.90;;;8.50;96.90;;;;;;5085151;28;20101;-69
2021/11/07 08:25:19;;;;;;;15.35;4.05;;;8.50;97.10;;;;;;5078732;28;20036;-70
2021/11/07 08:27:47;;;;;;;13.35;4.70;;;8.50;97.00;;;;;;5088337;28;20050;-70
2021/11/07 08:30:15;;;;;;;20.08;4.43;;;8.50;96.70;;;;;;5087955;28;20055;-69
2021/11/07 08:32:42;;;;;;;14.27;3.97;;;8.50;97.10;;;;;;5087781;28;20392;-70
2021/11/07 08:35:09;;;;;;;13.77;3.80;;;8.60;97.10;;;;;;5088416;28;20048;-70
2021/11/07 08:38:22;;;;;;;20.92;5.78;;;8.60;97.10;;;;;;5089051;28;20047;-69
2021/11/07 08:40:33;;;;;;;10.80;3.72;;;8.70;96.70;;;;;;5083821;28;20093;-70
2021/11/07 08:54:31;;;;;;;14.95;3.70;;;8.70;96.80;;;;;;5092772;28;20044;-69
2021/11/07 09:05:07;;;;;;;18.92;4.95;;;9.30;95.00;;;;;;5097927;28;20052;-70
2021/11/07 09:10:09;;;;;;;18.40;4.20;;;9.40;94.90;;;;;;5093845;28;20082;-70
2021/11/07 09:12:36;;;;;;;16.33;5.45;;;9.40;94.60;;;;;;5090959;28;20052;-69
2021/11/07 09:15:04;;;;;;;23.73;9.38;;;9.40;94.60;;;;;;5092095;28;20128;-70
2021/11/07 09:17:32;;;;;;;57.40;30.70;;;9.50;94.70;;;;;;5090949;28;20415;-69
2021/11/07 09:20:05;;;;;;;27.85;8.25;;;9.50;94.60;;;;;;5092236;28;20054;-70
2021/11/07 09:25:07;;;;;;;14.20;4.65;;;9.60;94.70;;;;;;5091328;28;20055;-69
2021/11/07 09:30:29;;;;;;;20.52;4.50;;;9.60;94.30;;;;;;5086569;28;20101;-69
2021/11/07 09:38:23;;;;;;;17.20;5.50;;;9.70;93.90;;;;;;5091155;28;20060;-70
2021/11/07 09:41:15;;;;;;;19.23;4.47;;;9.70;94.00;;;;;;5075487;28;20058;-69
2021/11/07 09:44:06;;;;;;;12.75;4.07;;;9.70;93.50;;;;;;5071053;28;20052;-70
2021/11/07 09:46:37;;;;;;;15.98;3.85;;;9.80;94.10;;;;;;5071180;28;20050;-70
2021/11/07 09:49:26;;;;;;;15.18;4.00;;;9.80;93.30;;;;;;5092405;28;20066;-70
2021/11/07 09:52:02;;;;;;;15.82;3.95;;;9.90;93.30;;;;;;5090004;28;20048;-70
2021/11/07 09:54:30;;;;;;;18.30;4.40;;;10.00;93.30;;;;;;5092003;28;20067;-69
2021/11/07 09:56:58;;;;;;;19.10;4.10;;;10.00;92.60;;;;;;5088474;28;20075;-73
2021/11/07 09:59:26;;;;;;;21.38;7.50;;;10.10;93.30;;;;;;5070690;28;20055;-70
2021/11/07 10:02:00;;;;;;;19.67;4.78;;;10.10;92.70;;;;;;5090824;28;20491;-70
2021/11/07 10:04:29;;;;;;;16.08;5.43;;;10.10;93.30;;;;;;5091682;28;20084;-70
2021/11/07 10:07:16;;;;;;;13.55;5.15;;;10.20;92.70;;;;;;5090719;28;20104;-68
2021/11/07 10:09:44;;;;;;;15.23;4.95;;;10.30;92.90;;;;;;5090484;28;20044;-69
2021/11/07 10:12:15;;;;;;;260.17;197.18;;;10.40;92.80;;;;;;5090033;28;20048;-70
2021/11/07 10:14:46;;;;;;;32.05;11.95;;;10.50;91.40;;;;;;5070209;28;20066;-69
2021/11/07 10:17:43;;;;;;;16.20;5.50;;;10.60;90.60;;;;;;5087788;28;20044;-69
2021/11/07 10:22:53;;;;;;;11.55;3.75;;;10.80;89.30;;;;;;5088793;28;20051;-67
2021/11/07 10:25:32;;;;;;;15.23;4.28;;;10.80;87.00;;;;;;5072217;28;20101;-73
2021/11/07 10:28:00;;;;;;;18.02;4.75;;;11.00;86.10;;;;;;5087635;28;20415;-74
2021/11/07 10:30:30;;;;;;;16.60;3.70;;;11.00;85.40;;;;;;5087748;28;20461;-74
2021/11/07 10:33:02;;;;;;;16.00;4.45;;;11.10;82.10;;;;;;5088220;28;20050;-72
2021/11/07 10:38:52;;;;;;;18.43;4.53;;;11.20;84.00;;;;;;5089622;28;20044;-71
2021/11/07 10:53:02;;;;;;;52.22;33.50;;;11.30;78.80;;;;;;5092049;28;20565;-73
2021/11/07 10:55:33;;;;;;;47.03;21.95;;;11.30;77.40;;;;;;5087387;28;20048;-79
2021/11/07 10:58:03;;;;;;;22.20;9.32;;;11.40;77.80;;;;;;5053543;28;20059;-76
2021/11/07 11:00:47;;;;;;;19.27;4.45;;;11.30;77.20;;;;;;5068564;28;20040;-77
2021/11/07 11:03:19;;;;;;;19.77;5.45;;;11.30;78.00;;;;;;5083230;28;20044;-77
2021/11/07 11:08:39;;;;;;;19.48;5.72;;;11.30;78.70;;;;;;5089635;28;20056;-78
2021/11/07 11:13:52;;;;;;;19.00;5.30;;;11.30;78.20;;;;;;5088956;28;20048;-78
2021/11/07 11:16:51;;;;;;;15.63;3.67;;;11.30;74.70;;;;;;5097639;28;20043;-78
2021/11/07 11:31:02;;;;;;;97.57;64.25;;;11.30;75.60;;;;;;5089759;28;20076;-64
2021/11/07 11:33:32;;;;;;;29.15;12.57;;;11.50;77.40;;;;;;5088926;28;20508;-78
2021/11/07 11:38:49;;;;;;;24.95;8.13;;;11.50;73.80;;;;;;5072793;28;20071;-64
2021/11/07 11:43:46;;;;;;;18.17;4.78;;;11.60;73.70;;;;;;5090322;28;20044;-75
2021/11/07 11:46:29;;;;;;;19.63;5.80;;;11.60;73.10;;;;;;5072541;28;20119;-74
2021/11/07 11:54:20;;;;;;;19.88;4.97;;;11.70;73.10;;;;;;5071511;28;20048;-74
2021/11/07 11:58:08;;;;;;;82.88;59.22;;;11.90;71.50;;;;;;5074775;28;20055;-69
2021/11/07 12:10:47;;;;;;;48.17;28.38;;;12.20;73.60;;;;;;5090481;28;20040;-72
2021/11/07 12:13:55;;;;;;;15.93;5.75;;;12.20;70.60;;;;;;5087924;28;20044;-73
2021/11/07 12:16:59;;;;;;;14.13;4.40;;;12.20;70.50;;;;;;5069419;28;20400;-73
2021/11/07 12:19:42;;;;;;;15.02;4.15;;;12.10;71.10;;;;;;5023594;28;20053;-75
2021/11/07 12:22:17;;;;;;;16.27;4.10;;;12.10;69.30;;;;;;5084577;28;20478;-74
2021/11/07 12:24:47;;;;;;;23.30;6.70;;;12.00;71.60;;;;;;5090768;28;20040;-75
2021/11/07 12:27:26;;;;;;;65.45;43.35;;;12.10;69.50;;;;;;5092592;28;20495;-73
2021/11/07 12:30:04;;;;;;;16.63;8.75;;;12.10;70.00;;;;;;5093328;28;20048;-72
2021/11/07 12:32:37;;;;;;;86.80;61.60;;;12.10;69.30;;;;;;5090352;28;20044;-74
2021/11/07 12:35:26;;;;;;;23.52;7.70;;;12.10;70.00;;;;;;5092059;28;20078;-74
2021/11/07 12:41:01;;;;;;;17.58;4.53;;;12.10;69.30;;;;;;5091767;28;20127;-73
2021/11/07 12:43:32;;;;;;;15.50;4.72;;;12.10;69.80;;;;;;5090502;28;20043;-74
2021/11/07 12:49:21;;;;;;;14.23;5.38;;;12.10;70.00;;;;;;5088997;28;20063;-73
2021/11/07 12:52:06;;;;;;;17.17;4.28;;;12.10;70.20;;;;;;5090609;28;20124;-75
2021/11/07 12:54:34;;;;;;;20.42;5.57;;;12.10;71.40;;;;;;5091278;28;20048;-75
2021/11/07 12:57:06;;;;;;;18.85;4.38;;;12.10;71.30;;;;;;5092492;28;20044;-73
2021/11/07 12:59:43;;;;;;;16.92;4.93;;;12.10;70.60;;;;;;5088789;28;20040;-73
2021/11/07 13:02:28;;;;;;;18.73;4.80;;;12.10;71.70;;;;;;5091186;28;20088;-65
2021/11/07 13:05:06;;;;;;;13.93;4.82;;;12.30;72.50;;;;;;5090274;28;20059;-65
2021/11/07 13:07:41;;;;;;;21.52;7.25;;;12.40;71.80;;;;;;5088946;28;20088;-64
2021/11/07 13:10:12;;;;;;;15.77;4.13;;;12.40;69.50;;;;;;5092658;28;20061;-73
2021/11/07 13:12:48;;;;;;;16.25;4.50;;;12.40;69.30;;;;;;5090382;28;20047;-75
2021/11/07 13:15:47;;;;;;;15.95;4.88;;;12.30;69.20;;;;;;5091229;28;20047;-76
2021/11/07 13:32:22;;;;;;;15.73;5.88;;;12.10;71.00;;;;;;5090568;28;20044;-72
2021/11/07 13:35:05;;;;;;;17.45;5.43;;;12.10;72.00;;;;;;5102349;28;20055;-74
2021/11/07 13:37:41;;;;;;;13.73;5.07;;;12.10;72.00;;;;;;5108127;28;20052;-74
2021/11/07 13:40:13;;;;;;;18.92;4.30;;;12.20;71.90;;;;;;5075172;28;20098;-72
2021/11/07 13:42:41;;;;;;;21.55;4.68;;;12.20;70.50;;;;;;5090946;28;20058;-74
2021/11/07 13:45:10;;;;;;;17.48;5.35;;;12.20;70.40;;;;;;5090378;28;20051;-74
2021/11/07 13:47:41;;;;;;;20.77;4.38;;;12.20;69.70;;;;;;5091534;28;20048;-73
2021/11/07 13:50:10;;;;;;;15.20;3.85;;;12.20;69.60;;;;;;5091474;28;20506;-75
2021/11/07 13:52:39;;;;;;;18.50;4.17;;;12.20;67.50;;;;;;5088543;28;20058;-73
2021/11/07 13:55:35;;;;;;;16.90;4.68;;;12.20;68.60;;;;;;5072664;28;20036;-74
2021/11/07 13:58:17;;;;;;;19.23;5.30;;;12.30;68.00;;;;;;5066597;28;20048;-73
2021/11/07 14:00:45;;;;;;;90.55;60.78;;;12.30;66.80;;;;;;5091434;28;20200;-74
2021/11/07 14:03:14;;;;;;;22.45;6.25;;;12.30;68.40;;;;;;5091508;28;20056;-74
2021/11/07 14:05:56;;;;;;;20.60;6.30;;;12.30;67.00;;;;;;5091649;28;20040;-74
2021/11/07 14:08:23;;;;;;;19.55;4.40;;;12.30;68.50;;;;;;5073237;28;20060;-74
2021/11/07 14:10:51;;;;;;;30.35;6.53;;;12.30;68.10;;;;;;5086545;28;20050;-74
2021/11/07 14:13:18;;;;;;;13.85;4.45;;;12.30;69.30;;;;;;5089482;28;20048;-74
2021/11/07 14:15:48;;;;;;;14.68;5.45;;;12.30;69.10;;;;;;5072686;28;20104;-75
2021/11/07 14:18:16;;;;;;;;;;;12.40;69.90;;;;;;5078696;28;20052;-71
2021/11/07 14:20:52;;;;;;;14.60;4.53;;;12.30;69.60;;;;;;5088377;28;19928;-75
2021/11/07 14:23:47;;;;;;;13.73;4.82;;;12.30;70.00;;;;;;5083596;28;20063;-73
2021/11/07 14:26:26;;;;;;;16.33;4.65;;;12.30;68.40;;;;;;5090295;28;20462;-72
2021/11/07 14:28:58;;;;;;;14.83;4.97;;;12.30;69.20;;;;;;5074375;28;20051;-71
2021/11/07 14:31:38;;;;;;;14.35;4.85;;;12.20;69.10;;;;;;5090556;28;20296;-74
2021/11/07 14:36:43;;;;;;;16.50;5.20;;;12.20;70.70;;;;;;5088758;28;20484;-73
2021/11/07 14:45:19;;;;;;;14.80;4.00;;;12.10;68.90;;;;;;5048524;28;20519;-75
2021/11/07 14:54:20;;;;;;;30.25;14.38;;;12.00;70.10;;;;;;5087072;28;20440;-74
2021/11/07 15:05:03;;;;;;;24.10;5.03;;;11.80;68.60;;;;;;5089972;28;20083;-73
2021/11/07 15:16:15;;;;;;;28.42;4.68;;;11.60;69.50;;;;;;5089946;28;20051;-73
2021/11/07 15:18:55;;;;;;;20.88;6.00;;;11.60;71.40;;;;;;5090376;28;20054;-74
2021/11/07 15:24:37;;;;;;;15.52;4.82;;;11.50;72.00;;;;;;5074057;28;20048;-74
2021/11/07 15:27:06;;;;;;;15.10;5.05;;;11.50;70.30;;;;;;5089520;28;20048;-73
2021/11/07 15:29:43;;;;;;;19.85;5.30;;;11.50;72.00;;;;;;5072608;28;20052;-74
2021/11/07 15:32:13;;;;;;;15.85;5.60;;;11.40;71.50;;;;;;5088844;28;20411;-74
2021/11/07 15:34:51;;;;;;;12.38;4.28;;;11.40;72.20;;;;;;5089120;28;20048;-72
2021/11/07 15:37:32;;;;;;;12.43;4.60;;;11.30;72.10;;;;;;5090315;28;20055;-74
2021/11/07 15:40:01;;;;;;;23.08;5.20;;;11.30;73.10;;;;;;5089102;28;20048;-74
2021/11/07 15:42:36;;;;;;;19.17;5.40;;;11.20;73.30;;;;;;5089201;28;20055;-74
2021/11/07 15:45:16;;;;;;;18.35;4.55;;;11.20;74.70;;;;;;5089098;28;20087;-74
2021/11/07 15:58:30;;;;;;;15.10;4.05;;;11.00;74.60;;;;;;5091604;28;20050;-73
2021/11/07 16:12:06;;;;;;;18.70;5.28;;;10.70;78.80;;;;;;5077131;28;20383;-74
2021/11/07 16:16:56;;;;;;;18.17;5.85;;;10.60;77.70;;;;;;5092681;28;20075;-73
2021/11/07 16:19:26;;;;;;;20.48;4.60;;;10.60;78.00;;;;;;5080356;28;20048;-77
2021/11/07 16:21:54;;;;;;;14.00;4.75;;;10.50;76.80;;;;;;5091756;28;20040;-77
2021/11/07 16:24:22;;;;;;;463.05;310.55;;;10.60;78.50;;;;;;5092732;28;20078;-78
2021/11/07 16:26:53;;;;;;;64.82;39.78;;;10.60;78.50;;;;;;5091423;28;20514;-74
2021/11/07 16:29:25;;;;;;;26.70;14.05;;;10.50;78.60;;;;;;5078988;28;20044;-74
2021/11/07 16:32:01;;;;;;;16.05;6.10;;;10.50;79.40;;;;;;5092021;28;20117;-74
2021/11/07 16:34:30;;;;;;;16.98;6.32;;;10.40;79.40;;;;;;5093745;28;20055;-74